createdAt,value
2019-03-06T00:00:04.214Z,0.00
2019-03-06T00:01:04.204Z,0.00
2019-03-06T00:02:04.195Z,0.00
2019-03-06T00:03:04.180Z,0.00
2019-03-06T00:04:04.187Z,0.00
2019-03-06T00:05:04.159Z,0.00
2019-03-06T00:06:04.147Z,0.00
2019-03-06T00:07:04.143Z,0.00
2019-03-06T00:08:04.126Z,0.00
2019-03-06T00:09:04.128Z,0.00
2019-03-06T00:10:04.101Z,0.00
2019-03-06T00:11:04.093Z,0.00
2019-03-06T00:12:04.079Z,0.00
2019-03-06T00:13:04.069Z,0.00
2019-03-06T00:14:04.071Z,0.00
2019-03-06T00:15:04.049Z,0.00
2019-03-06T00:16:04.036Z,0.00
2019-03-06T00:17:04.023Z,0.00
2019-03-06T00:18:04.031Z,0.00
2019-03-06T00:19:04.017Z,0.00
2019-03-06T00:20:03.991Z,0.00
2019-03-06T00:21:03.979Z,0.00
2019-03-06T00:22:03.973Z,0.00
2019-03-06T00:23:03.958Z,0.00
2019-03-06T00:24:03.959Z,0.00
2019-03-06T00:25:03.935Z,0.00
2019-03-06T00:26:03.924Z,0.00
2019-03-06T00:27:03.915Z,0.00
2019-03-06T00:28:03.937Z,0.00
2019-03-06T00:29:03.908Z,0.00
2019-03-06T00:30:03.878Z,0.00
2019-03-06T00:31:03.873Z,0.00
2019-03-06T00:32:03.856Z,0.00
2019-03-06T00:33:03.844Z,0.00
2019-03-06T00:34:03.844Z,0.00
2019-03-06T00:35:03.821Z,0.00
2019-03-06T00:36:03.812Z,0.00
2019-03-06T00:37:03.804Z,0.00
2019-03-06T00:38:03.789Z,0.00
2019-03-06T00:39:03.803Z,0.00
2019-03-06T00:40:03.772Z,0.00
2019-03-06T00:41:03.774Z,0.00
2019-03-06T00:42:03.743Z,0.00
2019-03-06T00:43:03.736Z,0.00
2019-03-06T00:44:03.742Z,0.00
2019-03-06T00:45:03.716Z,0.00
2019-03-06T00:46:03.702Z,0.00
2019-03-06T00:47:03.691Z,0.00
2019-03-06T00:48:03.683Z,0.00
2019-03-06T00:49:03.698Z,0.00
2019-03-06T00:50:03.655Z,0.00
2019-03-06T00:51:03.666Z,0.00
2019-03-06T00:52:03.638Z,0.00
2019-03-06T00:53:03.625Z,0.00
2019-03-06T00:54:03.621Z,0.00
2019-03-06T00:55:03.602Z,0.00
2019-03-06T00:56:03.589Z,0.00
2019-03-06T00:57:03.577Z,0.00
2019-03-06T00:58:03.566Z,0.00
2019-03-06T00:59:03.568Z,0.00
2019-03-06T01:00:03.548Z,0.00
2019-03-06T01:01:03.531Z,0.00
2019-03-06T01:02:03.521Z,0.00
2019-03-06T01:03:03.510Z,0.00
2019-03-06T01:04:03.544Z,0.00
2019-03-06T01:05:03.488Z,0.00
2019-03-06T01:06:03.476Z,0.00
2019-03-06T01:07:03.466Z,0.00
2019-03-06T01:08:03.453Z,0.00
2019-03-06T01:09:03.445Z,0.00
2019-03-06T01:10:03.446Z,0.00
2019-03-06T01:11:03.423Z,0.00
2019-03-06T01:12:03.409Z,0.00
2019-03-06T01:13:03.402Z,0.00
2019-03-06T01:14:03.409Z,0.00
2019-03-06T01:15:03.387Z,0.00
2019-03-06T01:16:03.366Z,0.00
2019-03-06T01:17:03.355Z,0.00
2019-03-06T01:18:03.343Z,0.00
2019-03-06T01:19:03.330Z,0.00
2019-03-06T01:20:03.333Z,0.00
2019-03-06T01:21:03.310Z,0.00
2019-03-06T01:22:03.299Z,0.00
2019-03-06T01:23:03.286Z,0.00
2019-03-06T01:24:03.277Z,0.00
2019-03-06T01:25:03.275Z,0.00
2019-03-06T01:26:03.254Z,0.00
2019-03-06T01:27:03.242Z,0.00
2019-03-06T01:28:03.238Z,0.00
2019-03-06T01:29:03.224Z,0.00
2019-03-06T01:30:03.219Z,0.00
2019-03-06T01:31:03.242Z,0.00
2019-03-06T01:32:03.188Z,0.00
2019-03-06T01:33:03.176Z,0.00
2019-03-06T01:34:03.164Z,0.00
2019-03-06T01:35:03.167Z,0.00
2019-03-06T01:36:03.165Z,0.00
2019-03-06T01:37:03.150Z,0.00
2019-03-06T01:38:03.125Z,0.00
2019-03-06T01:39:03.109Z,0.00
2019-03-06T01:40:03.114Z,0.00
2019-03-06T01:41:03.085Z,0.00
2019-03-06T01:42:03.074Z,0.00
2019-03-06T01:43:03.066Z,0.00
2019-03-06T01:44:03.052Z,0.00
2019-03-06T01:45:03.057Z,0.00
2019-03-06T01:46:03.033Z,0.00
2019-03-06T01:47:03.018Z,0.00
2019-03-06T01:48:03.006Z,0.00
2019-03-06T01:49:02.996Z,0.00
2019-03-06T01:50:03.016Z,0.00
2019-03-06T01:51:02.974Z,0.00
2019-03-06T01:52:02.962Z,0.00
2019-03-06T01:53:02.950Z,0.00
2019-03-06T01:54:02.937Z,0.00
2019-03-06T01:55:02.948Z,0.00
2019-03-06T01:56:02.926Z,0.00
2019-03-06T01:57:02.907Z,0.00
2019-03-06T01:58:02.896Z,0.00
2019-03-06T01:59:02.884Z,0.00
2019-03-06T02:00:02.899Z,0.00
2019-03-06T02:01:02.860Z,0.00
2019-03-06T02:02:02.854Z,0.00
2019-03-06T02:03:02.838Z,0.00
2019-03-06T02:04:02.839Z,0.00
2019-03-06T02:05:02.818Z,0.00
2019-03-06T02:06:02.817Z,0.00
2019-03-06T02:07:02.797Z,0.00
2019-03-06T02:08:02.782Z,0.00
2019-03-06T02:09:02.771Z,0.00
2019-03-06T02:10:02.761Z,0.00
2019-03-06T02:11:02.764Z,0.00
2019-03-06T02:12:02.736Z,0.00
2019-03-06T02:13:02.731Z,0.00
2019-03-06T02:14:02.715Z,0.00
2019-03-06T02:15:02.704Z,0.00
2019-03-06T02:16:02.704Z,0.00
2019-03-06T04:24:39.467Z,0.00
2019-03-06T04:25:10.189Z,0.00
2019-03-06T04:26:10.175Z,0.00
2019-03-06T04:27:10.201Z,0.00
2019-03-06T04:28:10.155Z,0.00
2019-03-06T04:29:10.141Z,0.00
2019-03-06T04:30:10.132Z,0.00
2019-03-06T04:31:10.125Z,0.00
2019-03-06T04:32:10.119Z,0.00
2019-03-06T04:33:10.097Z,0.00
2019-03-06T04:34:10.088Z,0.00
2019-03-06T04:35:10.077Z,0.00
2019-03-06T04:36:10.064Z,0.00
2019-03-06T04:37:10.110Z,0.00
2019-03-06T04:38:10.041Z,0.00
2019-03-06T04:39:10.033Z,0.00
2019-03-06T04:40:10.031Z,0.00
2019-03-06T04:41:10.007Z,0.00
2019-03-06T04:42:10.039Z,0.00
2019-03-06T04:43:09.987Z,0.00
2019-03-06T04:44:09.974Z,0.00
2019-03-06T04:45:09.965Z,0.00
2019-03-06T04:46:09.951Z,0.00
2019-03-06T04:47:09.939Z,0.00
2019-03-06T04:48:09.944Z,0.00
2019-03-06T04:49:09.919Z,0.00
2019-03-06T04:50:09.924Z,0.00
2019-03-06T04:51:09.897Z,0.00
2019-03-06T04:52:09.895Z,0.00
2019-03-06T04:53:09.883Z,0.00
2019-03-06T04:54:09.862Z,0.00
2019-03-06T04:55:09.852Z,0.00
2019-03-06T04:56:09.847Z,0.00
2019-03-06T04:57:09.827Z,0.00
2019-03-06T04:58:09.830Z,0.00
2019-03-06T04:59:09.806Z,0.00
2019-03-06T05:00:09.882Z,0.00
2019-03-06T05:01:09.783Z,0.00
2019-03-06T05:02:09.777Z,0.00
2019-03-06T05:03:09.786Z,0.00
2019-03-06T05:04:09.748Z,0.00
2019-03-06T05:05:09.736Z,0.00
2019-03-06T05:06:09.726Z,0.00
2019-03-06T05:07:09.715Z,0.00
2019-03-06T05:08:09.714Z,0.00
2019-03-06T05:09:09.691Z,0.00
2019-03-06T05:10:09.684Z,0.00
2019-03-06T05:11:09.670Z,0.00
2019-03-06T05:12:09.661Z,0.00
2019-03-06T05:13:09.682Z,0.00
2019-03-06T05:14:09.636Z,0.00
2019-03-06T05:15:09.624Z,0.00
2019-03-06T05:16:09.619Z,0.00
2019-03-06T05:17:09.602Z,0.00
2019-03-06T05:18:09.604Z,0.00
2019-03-06T05:19:09.582Z,0.00
2019-03-06T05:20:09.570Z,0.00
2019-03-06T05:21:09.559Z,0.00
2019-03-06T05:22:09.556Z,0.00
2019-03-06T05:23:09.546Z,0.00
2019-03-06T05:24:09.526Z,0.00
2019-03-06T05:25:09.527Z,0.00
2019-03-06T05:26:09.511Z,0.00
2019-03-06T05:27:09.491Z,0.00
2019-03-06T05:28:09.494Z,0.00
2019-03-06T05:29:09.468Z,0.00
2019-03-06T05:30:09.461Z,0.00
2019-03-06T05:31:09.445Z,0.00
2019-03-06T05:32:09.435Z,0.00
2019-03-06T05:33:09.434Z,0.00
2019-03-06T05:34:09.411Z,0.00
2019-03-06T05:35:09.400Z,0.00
2019-03-06T05:36:09.410Z,0.00
2019-03-06T05:37:09.380Z,0.00
2019-03-06T05:38:09.391Z,0.00
2019-03-06T05:39:09.357Z,0.00
2019-03-06T05:40:09.343Z,0.00
2019-03-06T05:41:09.334Z,0.00
2019-03-06T05:42:09.321Z,0.00
2019-03-06T05:43:09.325Z,0.00
2019-03-06T05:44:09.301Z,0.00
2019-03-06T05:45:09.287Z,0.00
2019-03-06T05:46:09.277Z,0.00
2019-03-06T05:47:09.273Z,0.00
2019-03-06T05:48:09.272Z,0.00
2019-03-06T05:49:09.290Z,0.00
2019-03-06T05:50:09.234Z,0.00
2019-03-06T05:51:09.220Z,0.00
2019-03-06T05:52:09.211Z,0.00
2019-03-06T05:53:09.213Z,0.00
2019-03-06T05:54:09.186Z,0.00
2019-03-06T05:55:09.193Z,0.00
2019-03-06T05:56:09.163Z,0.00
2019-03-06T05:57:09.152Z,0.00
2019-03-06T05:58:09.154Z,0.00
2019-03-06T05:59:09.144Z,0.00
2019-03-06T06:00:09.119Z,0.00
2019-03-06T06:01:09.111Z,0.00
2019-03-06T06:02:09.095Z,0.00
2019-03-06T06:03:09.097Z,0.00
2019-03-06T06:04:09.074Z,0.00
2019-03-06T06:05:09.064Z,0.00
2019-03-06T06:06:09.052Z,0.00
2019-03-06T06:07:09.043Z,0.00
2019-03-06T06:08:09.040Z,0.00
2019-03-06T06:09:09.017Z,0.00
2019-03-06T06:10:09.007Z,0.00
2019-03-06T06:11:09.007Z,4.00
2019-03-06T06:12:08.997Z,4.00
2019-03-06T06:13:09.005Z,0.00
2019-03-06T06:14:08.961Z,0.00
2019-03-06T06:15:08.955Z,0.00
2019-03-06T06:16:08.940Z,0.00
2019-03-06T06:17:08.928Z,0.00
2019-03-06T06:18:08.918Z,4.00
2019-03-06T06:19:08.922Z,4.00
2019-03-06T06:20:08.894Z,4.00
2019-03-06T06:21:08.883Z,4.00
2019-03-06T06:22:08.888Z,0.00
2019-03-06T06:23:08.860Z,0.00
2019-03-06T06:24:08.862Z,4.00
2019-03-06T06:25:08.841Z,4.00
2019-03-06T06:26:08.826Z,4.00
2019-03-06T06:27:08.817Z,4.00
2019-03-06T06:28:08.803Z,4.00
2019-03-06T06:29:08.804Z,4.00
2019-03-06T06:30:08.781Z,4.00
2019-03-06T06:31:08.770Z,4.00
2019-03-06T06:32:08.760Z,4.00
2019-03-06T06:33:08.747Z,8.00
2019-03-06T06:34:08.836Z,8.00
2019-03-06T06:35:08.741Z,8.00
2019-03-06T06:36:08.736Z,8.00
2019-03-06T06:37:08.703Z,8.00
2019-03-06T06:38:08.692Z,8.00
2019-03-06T06:39:08.695Z,12.00
2019-03-06T06:40:08.669Z,8.00
2019-03-06T06:41:08.663Z,12.00
2019-03-06T06:42:08.646Z,12.00
2019-03-06T06:43:08.634Z,12.00
2019-03-06T06:44:08.637Z,8.00
2019-03-06T06:45:08.638Z,8.00
2019-03-06T06:46:08.604Z,8.00
2019-03-06T06:47:08.589Z,12.00
2019-03-06T06:48:08.596Z,12.00
2019-03-06T06:49:08.581Z,12.00
2019-03-06T06:50:08.558Z,8.00
2019-03-06T06:51:08.551Z,8.00
2019-03-06T06:52:08.538Z,8.00
2019-03-06T06:53:08.524Z,8.00
2019-03-06T06:54:08.536Z,8.00
2019-03-06T06:55:08.503Z,8.00
2019-03-06T06:56:08.489Z,8.00
2019-03-06T06:57:08.480Z,8.00
2019-03-06T06:58:08.480Z,12.00
2019-03-06T06:59:08.466Z,12.00
2019-03-06T07:00:08.443Z,12.00
2019-03-06T07:01:08.442Z,12.00
2019-03-06T07:02:08.422Z,12.00
2019-03-06T07:03:08.413Z,12.00
2019-03-06T07:04:08.420Z,12.00
2019-03-06T07:05:08.390Z,12.00
2019-03-06T07:06:08.376Z,12.00
2019-03-06T07:07:08.366Z,12.00
2019-03-06T07:08:08.376Z,16.00
2019-03-06T07:09:08.392Z,12.00
2019-03-06T07:10:08.331Z,12.00
2019-03-06T07:11:08.326Z,16.00
2019-03-06T07:12:08.311Z,16.00
2019-03-06T07:13:08.318Z,20.00
2019-03-06T07:14:08.305Z,16.00
2019-03-06T07:15:08.288Z,16.00
2019-03-06T07:16:08.574Z,16.00
2019-03-06T07:17:08.255Z,20.00
2019-03-06T07:18:08.246Z,24.00
2019-03-06T07:19:08.257Z,24.00
2019-03-06T07:20:08.225Z,24.00
2019-03-06T07:21:08.225Z,28.00
2019-03-06T07:22:08.196Z,28.00
2019-03-06T07:23:08.187Z,28.00
2019-03-06T07:24:08.197Z,28.00
2019-03-06T07:25:08.163Z,28.00
2019-03-06T07:26:08.155Z,28.00
2019-03-06T07:27:08.145Z,32.00
2019-03-06T07:28:08.129Z,28.00
2019-03-06T07:29:08.119Z,28.00
2019-03-06T07:30:08.118Z,32.00
2019-03-06T07:31:08.115Z,32.00
2019-03-06T07:32:08.083Z,28.00
2019-03-06T07:33:08.073Z,32.00
2019-03-06T07:34:08.061Z,32.00
2019-03-06T07:35:08.062Z,32.00
2019-03-06T07:36:08.039Z,36.00
2019-03-06T07:37:08.031Z,36.00
2019-03-06T07:38:08.018Z,36.00
2019-03-06T07:39:08.027Z,36.00
2019-03-06T07:40:08.011Z,36.00
2019-03-06T07:41:07.983Z,40.00
2019-03-06T07:42:07.977Z,40.00
2019-03-06T07:43:07.964Z,40.00
2019-03-06T07:44:07.958Z,44.00
2019-03-06T07:45:07.952Z,44.00
2019-03-06T07:46:07.927Z,44.00
2019-03-06T07:47:07.918Z,48.00
2019-03-06T07:48:07.907Z,48.00
2019-03-06T07:49:07.893Z,52.00
2019-03-06T07:50:07.898Z,52.00
2019-03-06T07:51:07.870Z,52.00
2019-03-06T07:52:07.858Z,52.00
2019-03-06T07:53:07.871Z,48.00
2019-03-06T07:54:07.858Z,52.00
2019-03-06T07:55:07.874Z,52.00
2019-03-06T07:56:07.831Z,56.00
2019-03-06T07:57:07.821Z,56.00
2019-03-06T07:58:07.816Z,52.00
2019-03-06T07:59:07.787Z,52.00
2019-03-06T08:00:07.788Z,44.00
2019-03-06T08:01:16.695Z,56.00
2019-03-06T08:02:08.774Z,60.00
2019-03-06T08:03:07.736Z,60.00
2019-03-06T08:04:08.154Z,56.00
2019-03-06T08:05:07.729Z,56.00
2019-03-06T08:06:07.705Z,56.00
2019-03-06T08:07:07.707Z,56.00
2019-03-06T08:08:07.679Z,60.00
2019-03-06T08:09:07.667Z,60.00
2019-03-06T08:10:07.674Z,64.00
2019-03-06T08:11:07.647Z,64.00
2019-03-06T08:12:07.641Z,68.00
2019-03-06T08:13:07.625Z,64.00
2019-03-06T08:14:07.610Z,64.00
2019-03-06T08:15:07.636Z,64.00
2019-03-06T08:16:07.590Z,60.00
2019-03-06T08:17:07.595Z,60.00
2019-03-06T08:18:07.565Z,56.00
2019-03-06T08:19:07.558Z,52.00
2019-03-06T08:20:07.543Z,56.00
2019-03-06T08:21:07.548Z,52.00
2019-03-06T08:22:07.523Z,52.00
2019-03-06T08:23:07.517Z,52.00
2019-03-06T08:24:07.498Z,52.00
2019-03-06T08:25:07.486Z,52.00
2019-03-06T08:26:07.488Z,56.00
2019-03-06T08:27:07.465Z,56.00
2019-03-06T08:28:07.454Z,52.00
2019-03-06T08:29:07.447Z,52.00
2019-03-06T08:30:07.448Z,52.00
2019-03-06T08:31:07.440Z,52.00
2019-03-06T08:32:07.414Z,52.00
2019-03-06T08:33:07.400Z,52.00
2019-03-06T08:34:07.390Z,52.00
2019-03-06T08:35:07.374Z,52.00
2019-03-06T08:36:07.375Z,52.00
2019-03-06T08:37:07.355Z,48.00
2019-03-06T08:38:07.343Z,48.00
2019-03-06T08:39:07.331Z,44.00
2019-03-06T08:40:07.335Z,48.00
2019-03-06T08:41:07.355Z,48.00
2019-03-06T08:42:07.347Z,44.00
2019-03-06T08:43:07.293Z,44.00
2019-03-06T08:44:07.274Z,44.00
2019-03-06T08:45:07.389Z,40.00
2019-03-06T08:46:07.272Z,40.00
2019-03-06T08:47:07.246Z,40.00
2019-03-06T08:48:07.228Z,40.00
2019-03-06T08:49:07.216Z,40.00
2019-03-06T08:50:07.216Z,40.00
2019-03-06T08:51:07.207Z,44.00
2019-03-06T08:52:07.183Z,48.00
2019-03-06T08:53:07.264Z,48.00
2019-03-06T08:54:07.168Z,52.00
2019-03-06T08:55:07.198Z,52.00
2019-03-06T08:56:07.164Z,56.00
2019-03-06T08:57:07.128Z,56.00
2019-03-06T08:58:07.119Z,60.00
2019-03-06T08:59:07.126Z,60.00
2019-03-06T09:00:07.103Z,64.00
2019-03-06T09:01:07.095Z,68.00
2019-03-06T09:02:15.315Z,72.00
2019-03-06T09:03:08.058Z,72.00
2019-03-06T09:04:07.048Z,76.00
2019-03-06T09:05:07.037Z,72.00
2019-03-06T09:06:07.058Z,72.00
2019-03-06T09:07:07.016Z,76.00
2019-03-06T09:08:07.012Z,76.00
2019-03-06T09:09:06.997Z,80.00
2019-03-06T09:10:07.026Z,80.00
2019-03-06T09:11:07.010Z,80.00
2019-03-06T09:12:06.966Z,80.00
2019-03-06T09:13:06.956Z,76.00
2019-03-06T09:14:06.953Z,76.00
2019-03-06T09:15:06.925Z,76.00
2019-03-06T09:16:06.946Z,76.00
2019-03-06T09:17:06.930Z,68.00
2019-03-06T09:18:09.309Z,68.00
2019-03-06T09:19:06.889Z,64.00
2019-03-06T09:20:06.878Z,60.00
2019-03-06T09:21:06.860Z,60.00
2019-03-06T09:22:06.857Z,60.00
2019-03-06T09:23:06.842Z,60.00
2019-03-06T09:24:06.829Z,60.00
2019-03-06T09:25:06.816Z,64.00
2019-03-06T09:26:06.829Z,64.00
2019-03-06T09:27:06.809Z,68.00
2019-03-06T09:28:06.878Z,68.00
2019-03-06T09:29:06.776Z,72.00
2019-03-06T09:30:13.231Z,72.00
2019-03-06T09:31:07.747Z,76.00
2019-03-06T09:32:06.750Z,80.00
2019-03-06T09:33:06.733Z,80.00
2019-03-06T09:34:06.715Z,80.00
2019-03-06T09:35:06.703Z,80.00
2019-03-06T09:36:06.706Z,80.00
2019-03-06T09:37:06.699Z,84.00
2019-03-06T09:38:10.960Z,92.00
2019-03-06T09:39:06.679Z,96.00
2019-03-06T09:40:06.647Z,92.00
2019-03-06T09:41:06.638Z,92.00
2019-03-06T09:42:06.651Z,88.00
2019-03-06T09:43:06.612Z,88.00
2019-03-06T09:44:06.600Z,88.00
2019-03-06T09:45:13.618Z,88.00
2019-03-06T09:46:06.578Z,84.00
2019-03-06T09:47:06.580Z,84.00
2019-03-06T09:48:06.556Z,80.00
2019-03-06T09:49:11.603Z,80.00
2019-03-06T09:50:07.533Z,92.00
2019-03-06T09:51:06.521Z,96.00
2019-03-06T09:52:06.524Z,96.00
2019-03-06T09:53:06.506Z,100.00
2019-03-06T09:54:06.487Z,100.00
2019-03-06T09:55:06.480Z,112.00
2019-03-06T09:56:06.489Z,116.00
2019-03-06T09:57:06.475Z,132.00
2019-03-06T09:58:06.451Z,140.00
2019-03-06T09:59:06.440Z,136.00
2019-03-06T10:00:06.421Z,144.00
2019-03-06T10:01:06.412Z,156.00
2019-03-06T10:02:07.183Z,156.00
2019-03-06T10:03:06.417Z,132.00
2019-03-06T10:04:06.400Z,116.00
2019-03-06T10:05:06.411Z,128.00
2019-03-06T10:06:06.352Z,132.00
2019-03-06T10:07:06.345Z,124.00
2019-03-06T10:08:06.354Z,116.00
2019-03-06T10:09:06.352Z,108.00
2019-03-06T10:10:06.312Z,104.00
2019-03-06T10:11:06.300Z,120.00
2019-03-06T10:12:06.307Z,100.00
2019-03-06T10:13:06.292Z,100.00
2019-03-06T10:14:06.263Z,100.00
2019-03-06T10:15:06.251Z,112.00
2019-03-06T10:16:08.176Z,124.00
2019-03-06T10:17:06.229Z,152.00
2019-03-06T10:18:06.229Z,188.00
2019-03-06T10:19:06.206Z,156.00
2019-03-06T10:20:06.195Z,104.00
2019-03-06T10:21:06.190Z,108.00
2019-03-06T10:22:06.173Z,108.00
2019-03-06T10:23:08.250Z,104.00
2019-03-06T10:24:06.154Z,100.00
2019-03-06T10:25:06.147Z,112.00
2019-03-06T10:26:06.129Z,104.00
2019-03-06T10:27:06.122Z,108.00
2019-03-06T10:28:06.945Z,132.00
2019-03-06T10:29:06.094Z,132.00
2019-03-06T10:30:06.085Z,128.00
2019-03-06T10:31:06.077Z,128.00
2019-03-06T10:32:06.067Z,148.00
2019-03-06T10:33:06.062Z,156.00
2019-03-06T10:34:06.071Z,152.00
2019-03-06T10:35:06.063Z,144.00
2019-03-06T10:36:06.016Z,132.00
2019-03-06T10:38:06.019Z,148.00
2019-03-06T10:39:06.009Z,148.00
2019-03-06T10:40:05.971Z,160.00
2019-03-06T10:41:05.970Z,168.00
2019-03-06T10:42:05.955Z,176.00
2019-03-06T10:43:05.953Z,184.00
2019-03-06T10:44:05.936Z,184.00
2019-03-06T10:45:05.916Z,188.00
2019-03-06T10:46:05.978Z,184.00
2019-03-06T10:47:05.903Z,192.00
2019-03-06T10:48:05.921Z,180.00
2019-03-06T10:49:05.879Z,184.00
2019-03-06T10:50:05.861Z,176.00
2019-03-06T10:51:05.858Z,180.00
2019-03-06T10:52:05.839Z,184.00
2019-03-06T10:53:05.863Z,188.00
2019-03-06T10:54:05.830Z,192.00
2019-03-06T10:55:05.804Z,216.00
2019-03-06T10:56:05.814Z,220.00
2019-03-06T10:57:05.782Z,244.00
2019-03-06T10:58:05.770Z,264.00
2019-03-06T10:59:05.775Z,276.00
2019-03-06T11:00:05.746Z,264.00
2019-03-06T11:01:05.749Z,256.00
2019-03-06T11:02:05.724Z,264.00
2019-03-06T11:03:05.714Z,264.00
2019-03-06T11:04:05.717Z,244.00
2019-03-06T11:05:05.698Z,256.00
2019-03-06T11:06:05.687Z,288.00
2019-03-06T11:07:05.669Z,256.00
2019-03-06T11:08:05.680Z,244.00
2019-03-06T11:09:05.658Z,292.00
2019-03-06T11:10:05.647Z,320.00
2019-03-06T11:11:05.652Z,328.00
2019-03-06T11:12:05.614Z,332.00
2019-03-06T11:13:05.602Z,336.00
2019-03-06T11:15:06.604Z,352.00
2019-03-06T11:16:05.583Z,356.00
2019-03-06T11:17:05.588Z,360.00
2019-03-06T11:18:05.551Z,356.00
2019-03-06T11:18:56.013Z,336.00
2019-03-06T11:19:05.566Z,356.00
2019-03-06T11:20:05.550Z,348.00
2019-03-06T11:21:05.512Z,360.00
2019-03-06T11:22:05.505Z,376.00
2019-03-06T11:23:05.493Z,384.00
2019-03-06T11:24:05.501Z,336.00
2019-03-06T11:25:05.466Z,288.00
2019-03-06T11:26:05.464Z,276.00
2019-03-06T11:27:05.456Z,220.00
2019-03-06T11:28:05.457Z,232.00
2019-03-06T11:29:05.490Z,268.00
2019-03-06T11:30:05.413Z,180.00
2019-03-06T11:31:05.401Z,160.00
2019-03-06T11:32:05.405Z,140.00
2019-03-06T11:33:05.382Z,132.00
2019-03-06T11:34:05.398Z,128.00
2019-03-06T11:35:05.358Z,124.00
2019-03-06T11:36:05.345Z,116.00
2019-03-06T11:37:05.343Z,112.00
2019-03-06T11:38:05.339Z,96.00
2019-03-06T11:39:05.322Z,76.00
2019-03-06T11:40:05.303Z,64.00
2019-03-06T11:41:05.304Z,64.00
2019-03-06T11:42:05.292Z,60.00
2019-03-06T11:43:05.285Z,60.00
2019-03-06T11:44:05.271Z,64.00
2019-03-06T11:45:05.245Z,68.00
2019-03-06T11:46:05.246Z,76.00
2019-03-06T11:47:05.224Z,100.00
2019-03-06T11:48:05.213Z,120.00
2019-03-06T11:49:06.489Z,120.00
2019-03-06T11:50:05.219Z,188.00
2019-03-06T11:51:05.492Z,272.00
2019-03-06T11:52:05.175Z,156.00
2019-03-06T11:53:05.179Z,192.00
2019-03-06T11:54:05.149Z,236.00
2019-03-06T11:55:06.290Z,172.00
2019-03-06T11:56:05.128Z,148.00
2019-03-06T11:57:05.130Z,124.00
2019-03-06T11:58:05.113Z,112.00
2019-03-06T11:59:05.099Z,104.00
2019-03-06T12:00:05.089Z,88.00
2019-03-06T12:01:05.074Z,88.00
2019-03-06T12:02:05.053Z,84.00
2019-03-06T12:03:05.043Z,80.00
2019-03-06T12:04:05.039Z,80.00
2019-03-06T12:05:05.044Z,80.00
2019-03-06T12:06:05.009Z,116.00
2019-03-06T12:07:05.001Z,104.00
2019-03-06T12:08:05.000Z,80.00
2019-03-06T12:09:04.980Z,76.00
2019-03-06T12:10:04.994Z,68.00
2019-03-06T12:11:04.959Z,68.00
2019-03-06T12:12:04.945Z,68.00
2019-03-06T12:13:04.931Z,72.00
2019-03-06T12:14:04.934Z,72.00
2019-03-06T12:15:04.919Z,80.00
2019-03-06T12:16:04.896Z,92.00
2019-03-06T12:17:04.891Z,96.00
2019-03-06T12:18:04.872Z,108.00
2019-03-06T12:19:04.862Z,116.00
2019-03-06T12:20:08.063Z,116.00
2019-03-06T12:21:04.841Z,120.00
2019-03-06T12:22:04.833Z,156.00
2019-03-06T12:23:04.819Z,144.00
2019-03-06T12:24:04.807Z,112.00
2019-03-06T12:25:04.807Z,100.00
2019-03-06T12:26:04.793Z,96.00
2019-03-06T12:27:04.778Z,96.00
2019-03-06T12:28:04.762Z,96.00
2019-03-06T12:29:04.782Z,100.00
2019-03-06T12:30:04.752Z,96.00
2019-03-06T12:31:04.727Z,88.00
2019-03-06T12:32:04.744Z,88.00
2019-03-06T12:33:04.714Z,84.00
2019-03-06T12:34:04.699Z,88.00
2019-03-06T12:35:04.701Z,84.00
2019-03-06T12:36:05.684Z,84.00
2019-03-06T12:37:04.663Z,84.00
2019-03-06T12:38:04.679Z,84.00
2019-03-06T12:39:04.646Z,88.00
2019-03-06T12:40:12.013Z,88.00
2019-03-06T12:41:05.641Z,92.00
2019-03-06T12:42:13.737Z,92.00
2019-03-06T12:43:05.597Z,92.00
2019-03-06T12:44:10.321Z,92.00
2019-03-06T12:45:05.606Z,92.00
2019-03-06T12:46:04.578Z,96.00
2019-03-06T12:47:04.574Z,88.00
2019-03-06T12:48:04.550Z,84.00
2019-03-06T12:49:04.527Z,80.00
2019-03-06T12:50:05.918Z,72.00
2019-03-06T12:51:04.525Z,68.00
2019-03-06T12:52:04.519Z,64.00
2019-03-06T12:53:04.486Z,60.00
2019-03-06T12:54:04.472Z,60.00
2019-03-06T12:55:04.576Z,56.00
2019-03-06T12:56:04.493Z,60.00
2019-03-06T12:57:04.436Z,60.00
2019-03-06T12:58:04.570Z,64.00
2019-03-06T12:59:04.415Z,64.00
2019-03-06T13:00:04.408Z,64.00
2019-03-06T13:01:04.420Z,68.00
2019-03-06T13:02:04.380Z,64.00
2019-03-06T13:03:04.370Z,68.00
2019-03-06T13:04:04.364Z,68.00
2019-03-06T13:05:04.352Z,68.00
2019-03-06T13:06:04.368Z,68.00
2019-03-06T13:07:04.329Z,68.00
2019-03-06T13:08:04.318Z,64.00
2019-03-06T13:09:04.326Z,60.00
2019-03-06T13:10:04.329Z,56.00
2019-03-06T13:11:04.325Z,56.00
2019-03-06T13:12:04.272Z,48.00
2019-03-06T13:13:04.270Z,48.00
2019-03-06T13:14:04.250Z,48.00
2019-03-06T13:15:04.235Z,52.00
2019-03-06T13:16:04.239Z,48.00
2019-03-06T13:17:04.234Z,52.00
2019-03-06T13:18:04.212Z,48.00
2019-03-06T13:19:04.210Z,44.00
2019-03-06T13:20:04.184Z,40.00
2019-03-06T13:21:04.189Z,36.00
2019-03-06T13:22:11.143Z,32.00
2019-03-06T13:23:05.147Z,28.00
2019-03-06T13:24:04.142Z,28.00
2019-03-06T13:25:04.139Z,24.00
2019-03-06T13:26:10.443Z,24.00
2019-03-06T13:27:05.123Z,24.00
2019-03-06T13:28:04.100Z,24.00
2019-03-06T13:29:04.105Z,24.00
2019-03-06T13:30:04.066Z,24.00
2019-03-06T13:31:04.088Z,24.00
2019-03-06T13:32:11.418Z,28.00
2019-03-06T13:33:05.044Z,24.00
2019-03-06T13:34:04.031Z,24.00
2019-03-06T13:35:04.019Z,28.00
2019-03-06T13:36:04.017Z,24.00
2019-03-06T13:37:03.990Z,28.00
2019-03-06T13:38:03.981Z,28.00
2019-03-06T13:39:06.556Z,28.00
2019-03-06T13:40:03.969Z,28.00
2019-03-06T13:41:03.960Z,28.00
2019-03-06T13:42:03.962Z,28.00
2019-03-06T13:43:03.927Z,32.00
2019-03-06T13:44:03.959Z,32.00
2019-03-06T13:45:03.911Z,28.00
2019-03-06T13:46:03.907Z,28.00
2019-03-06T13:47:03.883Z,28.00
2019-03-06T13:48:10.899Z,28.00
2019-03-06T13:49:03.856Z,28.00
2019-03-06T13:50:03.844Z,28.00
2019-03-06T13:51:03.841Z,28.00
2019-03-06T13:52:03.819Z,28.00
2019-03-06T13:53:03.808Z,28.00
2019-03-06T13:54:03.797Z,32.00
2019-03-06T13:55:03.786Z,32.00
2019-03-06T13:56:03.805Z,32.00
2019-03-06T13:57:03.785Z,32.00
2019-03-06T13:58:03.753Z,32.00
2019-03-06T13:59:03.741Z,32.00
2019-03-06T14:00:03.731Z,32.00
2019-03-06T14:01:03.730Z,36.00
2019-03-06T14:02:03.743Z,32.00
2019-03-06T14:03:03.701Z,32.00
2019-03-06T14:04:03.704Z,36.00
2019-03-06T14:05:03.687Z,32.00
2019-03-06T14:06:03.704Z,32.00
2019-03-06T14:07:03.666Z,28.00
2019-03-06T14:08:03.654Z,32.00
2019-03-06T14:09:03.630Z,28.00
2019-03-06T14:10:03.625Z,28.00
2019-03-06T14:11:03.608Z,24.00
2019-03-06T14:12:03.612Z,28.00
2019-03-06T14:13:03.584Z,28.00
2019-03-06T14:14:03.582Z,24.00
2019-03-06T14:15:03.568Z,24.00
2019-03-06T14:16:03.550Z,24.00
2019-03-06T14:17:03.611Z,24.00
2019-03-06T14:18:03.532Z,20.00
2019-03-06T14:19:03.527Z,20.00
2019-03-06T14:20:03.515Z,20.00
2019-03-06T14:21:03.506Z,20.00
2019-03-06T14:22:03.495Z,20.00
2019-03-06T14:23:03.470Z,16.00
2019-03-06T14:24:03.465Z,20.00
2019-03-06T14:25:03.528Z,16.00
2019-03-06T14:26:03.468Z,16.00
2019-03-06T14:27:03.442Z,16.00
2019-03-06T14:28:03.453Z,12.00
2019-03-06T14:29:03.404Z,16.00
2019-03-06T14:30:03.399Z,12.00
2019-03-06T14:31:03.402Z,12.00
2019-03-06T14:32:03.383Z,12.00
2019-03-06T14:33:03.359Z,12.00
2019-03-06T14:34:03.348Z,12.00
2019-03-06T14:35:03.337Z,12.00
2019-03-06T14:36:03.366Z,12.00
2019-03-06T14:37:03.330Z,16.00
2019-03-06T14:38:03.348Z,12.00
2019-03-06T14:39:03.300Z,16.00
2019-03-06T14:40:09.847Z,16.00
2019-03-06T14:41:04.279Z,16.00
2019-03-06T14:42:03.296Z,16.00
2019-03-06T14:43:03.257Z,16.00
2019-03-06T14:44:03.239Z,16.00
2019-03-06T14:45:03.230Z,16.00
2019-03-06T14:46:03.213Z,16.00
2019-03-06T14:47:03.214Z,16.00
2019-03-06T14:48:03.213Z,16.00
2019-03-06T14:49:03.181Z,16.00
2019-03-06T14:50:03.170Z,20.00
2019-03-06T14:51:03.175Z,16.00
2019-03-06T14:52:07.324Z,20.00
2019-03-06T14:53:03.148Z,16.00
2019-03-06T14:54:03.124Z,16.00
2019-03-06T14:55:04.409Z,16.00
2019-03-06T14:56:03.101Z,16.00
2019-03-06T14:57:03.096Z,16.00
2019-03-06T14:58:03.145Z,16.00
2019-03-06T14:59:03.117Z,16.00
2019-03-06T15:00:03.067Z,12.00
2019-03-06T15:01:03.047Z,12.00
2019-03-06T15:02:03.033Z,12.00
2019-03-06T15:03:03.134Z,16.00
2019-03-06T15:04:03.045Z,12.00
2019-03-06T15:05:03.015Z,12.00